Time;durP1;ratioP1;P1;durP2;ratioP2;P2;SDS_P1;SDS_P2;PMS_P1;PMS_P2;Temp;Humidity;BMP_temperature;BMP_pressure;BME280_temperature;BME280_humidity;BME280_pressure;Samples;Min_cycle;Max_cycle;Signal;HPM_P1;HPM_P2
2022/03/26 00:00:16;;;;;;;;;58.00;43.00;;;;;14.29;36.53;102542.91;2441853;28;45433;-89
2022/03/26 00:01:26;;;;;;;;;55.75;43.50;;;;;14.31;36.77;102546.41;2442226;28;44775;-87
2022/03/26 00:02:37;;;;;;;;;57.50;45.25;;;;;14.28;36.73;102538.50;2442082;28;46036;-88
2022/03/26 00:03:47;;;;;;;;;55.75;43.50;;;;;14.27;36.88;102545.56;2451163;28;45192;-87
2022/03/26 00:04:58;;;;;;;;;61.25;45.25;;;;;14.30;36.71;102544.63;2445151;27;46846;-87
2022/03/26 00:06:08;;;;;;;;;62.50;45.75;;;;;14.30;36.67;102552.56;2449485;28;45304;-87
2022/03/26 00:07:19;;;;;;;;;55.00;40.50;;;;;14.28;36.64;102538.50;2448235;28;46300;-87
2022/03/26 00:08:29;;;;;;;;;56.25;43.25;;;;;14.26;36.63;102545.63;2445635;28;44611;-88
2022/03/26 00:09:39;;;;;;;;;55.75;42.75;;;;;14.27;36.94;102542.09;2450545;28;45300;-88
2022/03/26 00:10:50;;;;;;;;;55.50;42.75;;;;;14.26;37.25;102540.31;2451250;27;45210;-84
2022/03/26 00:12:00;;;;;;;;;58.75;45.00;;;;;14.28;37.06;102541.16;2447483;27;45410;-84
2022/03/26 00:13:11;;;;;;;;;56.50;42.00;;;;;14.26;37.06;102546.50;2444951;28;44761;-84
2022/03/26 00:14:21;;;;;;;;;47.75;39.50;;;;;14.25;37.06;102543.84;2448251;28;46146;-85
2022/03/26 00:15:31;;;;;;;;;57.25;42.25;;;;;14.26;37.13;102542.97;2446571;28;45267;-87
2022/03/26 00:16:42;;;;;;;;;58.00;42.75;;;;;14.26;36.91;102540.31;2449276;28;46589;-84
2022/03/26 00:17:52;;;;;;;;;57.50;43.00;;;;;14.25;37.17;102544.72;2449692;28;45338;-80
2022/03/26 00:19:03;;;;;;;;;57.00;42.50;;;;;14.25;36.87;102542.09;2447476;28;45494;-81
2022/03/26 00:20:14;;;;;;;;;61.50;43.50;;;;;14.26;37.23;102537.69;2448883;28;45447;-83
2022/03/26 00:21:24;;;;;;;;;56.25;45.50;;;;;14.25;37.14;102536.81;2447882;27;45272;-84
2022/03/26 00:22:35;;;;;;;;;48.00;35.75;;;;;14.24;37.07;102535.06;2450949;28;45259;-83
2022/03/26 00:23:45;;;;;;;;;51.50;38.25;;;;;14.23;37.01;102540.38;2441354;28;46338;-84
2022/03/26 00:24:55;;;;;;;;;55.25;43.00;;;;;14.20;37.23;102535.16;2443429;28;45177;-83
2022/03/26 00:26:07;;;;;;;;;57.00;43.75;;;;;14.21;37.32;102542.19;2451692;28;46392;-83
2022/03/26 00:27:18;;;;;;;;;56.25;42.75;;;;;14.16;37.47;102535.22;2449900;28;45505;-83
2022/03/26 00:28:28;;;;;;;;;51.50;42.25;;;;;14.14;37.14;102533.50;2450025;28;46215;-83
2022/03/26 00:29:39;;;;;;;;;55.75;40.50;;;;;14.12;37.26;102538.84;2443231;28;45219;-82
2022/03/26 00:30:49;;;;;;;;;54.75;43.00;;;;;14.11;37.31;102538.84;2450999;28;45247;-83
2022/03/26 00:31:59;;;;;;;;;50.75;41.50;;;;;14.08;37.39;102537.13;2447107;27;45207;-83
2022/03/26 00:33:10;;;;;;;;;63.50;44.00;;;;;14.07;37.40;102535.41;2440975;28;47349;-83
2022/03/26 00:34:20;;;;;;;;;58.50;42.50;;;;;14.06;37.53;102534.53;2449786;28;45362;-84
2022/03/26 00:35:31;;;;;;;;;53.25;40.50;;;;;14.06;37.43;102539.81;2450591;27;45344;-83
2022/03/26 00:36:41;;;;;;;;;55.50;42.75;;;;;14.03;37.22;102531.06;2449840;28;45399;-84
2022/03/26 00:37:53;;;;;;;;;56.00;44.50;;;;;14.02;37.15;102532.84;2442775;28;46210;-83
2022/03/26 00:39:04;;;;;;;;;56.50;44.25;;;;;14.00;37.63;102533.78;2449408;28;45229;-83
2022/03/26 00:40:14;;;;;;;;;59.00;41.25;;;;;14.00;37.47;102544.34;2447031;28;45393;-84
2022/03/26 00:41:25;;;;;;;;;55.75;41.75;;;;;13.99;37.50;102532.91;2441883;28;45338;-83
2022/03/26 00:42:36;;;;;;;;;56.50;44.25;;;;;13.99;37.59;102532.91;2440989;28;47195;-83
2022/03/26 00:43:46;;;;;;;;;60.75;46.25;;;;;13.98;37.47;102531.16;2449053;28;45246;-83
2022/03/26 00:44:56;;;;;;;;;48.00;32.75;;;;;13.94;37.98;102525.06;2447080;27;45944;-84
2022/03/26 00:46:07;;;;;;;;;54.50;40.75;;;;;13.97;37.81;102541.75;2441956;28;44661;-83
2022/03/26 00:47:17;;;;;;;;;52.75;42.75;;;;;13.95;37.79;102533.88;2441064;28;45459;-83
2022/03/26 00:48:27;;;;;;;;;55.00;44.25;;;;;13.96;37.69;102540.88;2442327;28;45258;-84
2022/03/26 00:49:38;;;;;;;;;58.25;43.25;;;;;13.93;37.61;102535.63;2441261;27;45536;-84
2022/03/26 00:50:48;;;;;;;;;62.50;44.00;;;;;13.91;37.89;102543.59;2444836;28;45247;-83
2022/03/26 00:51:59;;;;;;;;;54.50;42.00;;;;;13.88;37.92;102533.09;2450427;28;46628;-83
2022/03/26 00:53:09;;;;;;;;;54.75;43.25;;;;;13.89;37.80;102545.41;2441902;28;45148;-83
2022/03/26 00:54:20;;;;;;;;;56.75;44.00;;;;;13.88;37.87;102541.00;2441507;28;45370;-83
2022/03/26 00:55:31;;;;;;;;;62.50;47.25;;;;;13.88;37.82;102543.66;2441862;28;45235;-85
2022/03/26 00:56:42;;;;;;;;;59.25;42.25;;;;;13.87;37.63;102541.94;2441395;28;46055;-85
2022/03/26 00:57:52;;;;;;;;;54.50;41.50;;;;;13.88;37.88;102545.44;2450980;28;45349;-85
2022/03/26 00:59:04;;;;;;;;;54.75;42.75;;;;;13.85;38.13;102543.72;2447679;28;47213;-84
2022/03/26 01:00:14;;;;;;;;;55.50;43.50;;;;;13.85;37.82;102541.09;2441089;28;45354;-88
2022/03/26 01:01:25;;;;;;;;;53.50;42.00;;;;;13.84;37.93;102540.22;2444265;28;47546;-89
2022/03/26 01:02:35;;;;;;;;;55.25;42.50;;;;;13.84;38.13;102540.22;2443335;28;45319;-87
2022/03/26 01:03:46;;;;;;;;;60.75;45.50;;;;;13.84;37.56;102536.69;2448075;28;45509;-88
2022/03/26 01:04:56;;;;;;;;;53.00;41.25;;;;;13.82;38.02;102538.50;2448553;28;45234;-91
2022/03/26 01:06:07;;;;;;;;;53.75;42.75;;;;;13.81;37.90;102539.38;2443188;28;47078;-86
2022/03/26 01:07:17;;;;;;;;;51.50;40.75;;;;;13.80;38.11;102540.31;2442867;27;44712;-84
2022/03/26 01:08:27;;;;;;;;;57.25;45.25;;;;;13.75;37.91;102527.16;2450456;28;45417;-90
2022/03/26 01:09:38;;;;;;;;;56.25;42.25;;;;;13.76;38.03;102533.31;2442194;28;45390;-91
2022/03/26 01:10:48;;;;;;;;;56.50;43.50;;;;;13.76;38.15;102538.59;2446608;28;46109;-91
2022/03/26 01:11:59;;;;;;;;;57.50;43.00;;;;;13.75;38.13;102531.56;2451651;27;45204;-91
2022/03/26 01:13:09;;;;;;;;;57.25;45.25;;;;;13.72;38.40;102533.38;2450300;28;46861;-90
2022/03/26 01:14:21;;;;;;;;;53.75;42.25;;;;;13.68;38.26;102526.38;2437967;28;45722;-91
2022/03/26 01:15:31;;;;;;;;;58.75;42.00;;;;;13.67;38.39;102531.69;2450164;28;45426;-91
2022/03/26 01:16:41;;;;;;;;;57.75;43.75;;;;;13.67;38.78;102531.69;2448467;27;44798;-92
2022/03/26 01:17:52;;;;;;;;;55.25;42.25;;;;;13.66;38.37;102533.47;2442404;28;48208;-87
2022/03/26 01:19:03;;;;;;;;;55.25;43.00;;;;;13.66;38.48;102536.09;2445624;28;45188;-86
2022/03/26 01:20:13;;;;;;;;;53.50;42.50;;;;;13.67;38.43;102537.00;2441195;28;46373;-87
2022/03/26 01:21:24;;;;;;;;;60.00;41.25;;;;;13.66;38.46;102538.75;2440906;28;45287;-87
2022/03/26 01:22:34;;;;;;;;;53.00;44.00;;;;;13.65;38.64;102537.03;2447856;28;45374;-87
2022/03/26 01:23:46;;;;;;;;;54.50;42.75;;;;;13.66;38.68;102536.09;2450569;28;44783;-87
2022/03/26 01:24:57;;;;;;;;;57.25;42.50;;;;;13.63;38.46;102528.22;2447362;28;46648;-87
2022/03/26 01:26:07;;;;;;;;;55.00;43.25;;;;;13.61;38.53;102530.03;2447948;28;44539;-87
2022/03/26 01:27:17;;;;;;;;;55.00;42.75;;;;;13.60;38.55;102533.59;2446428;28;45545;-85
2022/03/26 01:28:28;;;;;;;;;55.75;42.75;;;;;13.56;38.61;102526.56;2441592;28;45224;-84
2022/03/26 01:29:40;;;;;;;;;56.25;44.00;;;;;13.55;38.25;102524.84;2441794;28;45212;-85
2022/03/26 01:30:51;;;;;;;;;54.00;43.50;;;;;13.52;38.62;102525.75;2440588;28;45391;-82
2022/03/26 01:32:01;;;;;;;;;55.00;42.00;;;;;13.52;38.54;102525.75;2440711;28;45280;-82
2022/03/26 01:33:12;;;;;;;;;52.25;41.50;;;;;13.52;38.51;102524.88;2443523;28;45521;-81
2022/03/26 01:34:25;;;;;;;;;62.75;45.75;;;;;13.51;38.60;102524.00;2450942;27;45355;-81
2022/03/26 01:35:35;;;;;;;;;65.00;46.75;;;;;13.52;38.53;102522.22;2441668;28;44764;-81
2022/03/26 01:36:46;;;;;;;;;54.75;42.00;;;;;13.50;38.88;102524.91;2443167;28;47289;-82
2022/03/26 01:38:01;;;;;;;;;55.25;42.75;;;;;13.49;38.87;102521.38;2442950;28;45193;-83
2022/03/26 01:39:11;;;;;;;;;57.25;41.75;;;;;13.49;39.22;102525.78;2441239;28;46192;-82
2022/03/26 01:40:21;;;;;;;;;49.25;38.00;;;;;13.49;39.12;102524.03;2441405;28;45248;-82
2022/03/26 01:41:33;;;;;;;;;56.00;43.50;;;;;13.52;39.02;102523.13;2441341;28;46546;-82
2022/03/26 01:42:43;;;;;;;;;53.00;42.25;;;;;13.49;38.80;102515.22;2441337;28;44606;-82
2022/03/26 01:43:54;;;;;;;;;56.25;44.25;;;;;13.51;38.61;102524.00;2445714;28;46232;-82
2022/03/26 01:45:05;;;;;;;;;63.00;42.75;;;;;13.46;38.82;102521.44;2448814;27;44657;-82
2022/03/26 01:46:15;;;;;;;;;54.00;42.00;;;;;13.46;39.20;102520.56;2440942;28;45544;-82
2022/03/26 01:47:26;;;;;;;;;53.00;39.00;;;;;13.45;39.27;102521.47;2441576;28;44634;-82
2022/03/26 01:48:37;;;;;;;;;61.75;43.50;;;;;13.44;39.05;102517.06;2441284;28;45426;-82
2022/03/26 01:49:47;;;;;;;;;56.75;43.25;;;;;13.40;39.07;102511.00;2449845;27;44578;-81
2022/03/26 01:51:14;;;;;;;;;54.00;42.50;;;;;13.39;38.81;102514.50;2450163;28;45237;-81
2022/03/26 01:52:24;;;;;;;;;56.00;45.50;;;;;13.38;38.90;102508.34;2447384;27;45480;-82
2022/03/26 01:53:34;;;;;;;;;65.50;49.50;;;;;13.37;38.94;102503.09;2445507;27;46290;-82
2022/03/26 01:54:45;;;;;;;;;53.50;42.25;;;;;13.39;39.05;102511.88;2441273;28;44705;-82
2022/03/26 01:55:55;;;;;;;;;56.25;42.00;;;;;13.36;39.14;102515.44;2441192;28;46445;-83
2022/03/26 01:57:06;;;;;;;;;64.25;47.50;;;;;13.33;39.16;102502.31;2441179;28;45334;-83
2022/03/26 01:58:16;;;;;;;;;64.75;46.00;;;;;13.32;38.98;102503.19;2441163;28;45271;-83
2022/03/26 01:59:27;;;;;;;;;63.25;48.00;;;;;13.32;38.99;102497.91;2441310;28;44608;-83
2022/03/26 02:00:37;;;;;;;;;60.75;43.75;;;;;13.32;39.28;102504.94;2445601;28;46078;-83
2022/03/26 02:01:48;;;;;;;;;57.25;43.50;;;;;13.34;39.34;102516.34;2449617;27;45230;-83
2022/03/26 02:02:58;;;;;;;;;56.25;45.00;;;;;13.33;39.47;102507.59;2441237;28;45348;-83
2022/03/26 02:04:09;;;;;;;;;54.50;42.25;;;;;13.32;39.43;102507.59;2443308;28;45162;-83
2022/03/26 02:05:20;;;;;;;;;62.00;47.00;;;;;13.31;39.22;102500.56;2440888;28;45549;-83
2022/03/26 02:06:32;;;;;;;;;60.00;44.00;;;;;13.31;39.52;102505.84;2450787;28;45230;-83
2022/03/26 02:07:46;;;;;;;;;57.00;46.50;;;;;13.29;39.40;102505.88;2444252;27;46569;-83
2022/03/26 02:08:56;;;;;;;;;64.00;47.50;;;;;13.30;39.26;102504.09;2446306;28;45541;-82
2022/03/26 02:10:08;;;;;;;;;59.00;46.25;;;;;13.28;39.53;102501.50;2450354;27;46436;-82
2022/03/26 02:11:19;;;;;;;;;61.25;46.25;;;;;13.25;39.21;102497.13;2449656;28;45270;-82
2022/03/26 02:12:29;;;;;;;;;62.25;48.75;;;;;13.25;39.24;102507.69;2446774;27;46384;-83
2022/03/26 02:13:55;;;;;;;;;58.25;44.50;;;;;13.25;39.23;102499.78;2450718;27;45277;-82
2022/03/26 02:15:06;;;;;;;;;57.50;45.25;;;;;13.23;39.36;102503.34;2448946;28;45336;-81
2022/03/26 02:16:17;;;;;;;;;62.75;46.50;;;;;13.23;39.30;102505.97;2445920;27;45212;-81
2022/03/26 02:17:27;;;;;;;;;58.75;43.00;;;;;13.21;39.45;102505.97;2440986;28;45482;-81
2022/03/26 02:18:38;;;;;;;;;58.75;43.25;;;;;13.16;39.39;102502.56;2441274;28;45215;-81
2022/03/26 02:19:53;;;;;;;;;52.50;43.00;;;;;13.19;39.83;102510.41;2440954;28;46272;-81
2022/03/26 02:21:03;;;;;;;;;61.25;46.00;;;;;13.16;39.71;102503.41;2441278;27;45338;-80
2022/03/26 02:22:14;;;;;;;;;52.75;42.50;;;;;13.18;39.44;102500.78;2441021;28;45695;-83
2022/03/26 02:23:24;;;;;;;;;60.25;47.00;;;;;13.14;39.62;102504.34;2441136;28;44758;-82
2022/03/26 02:24:35;;;;;;;;;55.75;41.75;;;;;13.13;39.30;102503.50;2440799;28;45316;-84
2022/03/26 02:25:45;;;;;;;;;59.25;45.50;;;;;13.09;39.56;102501.75;2445776;28;45317;-84
2022/03/26 02:26:56;;;;;;;;;50.50;38.75;;;;;13.09;39.70;102500.91;2449283;27;45226;-84
2022/03/26 02:28:07;;;;;;;;;60.75;45.50;;;;;13.08;39.82;102502.69;2440788;28;45280;-83
2022/03/26 02:29:18;;;;;;;;;59.50;45.50;;;;;13.07;39.68;102507.97;2440917;28;46469;-84
2022/03/26 02:30:30;;;;;;;;;49.75;40.50;;;;;13.06;40.27;102509.75;2441030;28;45220;-84
2022/03/26 02:31:40;;;;;;;;;62.75;47.00;;;;;13.04;39.95;102508.88;2441093;28;46345;-83
2022/03/26 02:32:51;;;;;;;;;60.75;45.50;;;;;13.02;39.91;102506.28;2441253;28;44729;-84
2022/03/26 02:34:02;;;;;;;;;63.25;46.25;;;;;12.99;39.91;102501.03;2440589;28;45393;-82
2022/03/26 02:35:13;;;;;;;;;63.50;45.00;;;;;12.98;39.83;102503.72;2444124;28;45287;-81
2022/03/26 02:36:23;;;;;;;;;60.00;46.50;;;;;12.97;39.95;102499.31;2450798;27;45357;-81
2022/03/26 02:37:34;;;;;;;;;62.75;49.25;;;;;12.99;40.15;102501.03;2447510;27;44846;-83
2022/03/26 02:38:44;;;;;;;;;59.25;46.00;;;;;12.99;40.00;102508.09;2440958;28;45314;-84
2022/03/26 02:39:55;;;;;;;;;58.00;43.50;;;;;12.96;39.86;102501.09;2441003;28;45294;-84
2022/03/26 02:41:06;;;;;;;;;57.75;46.25;;;;;12.93;40.28;102498.50;2442138;28;46303;-84
2022/03/26 02:42:16;;;;;;;;;61.00;47.25;;;;;12.93;40.14;102498.50;2443098;28;45239;-85
2022/03/26 02:43:27;;;;;;;;;59.00;46.00;;;;;12.92;40.15;102499.38;2442707;28;45254;-84
2022/03/26 02:44:38;;;;;;;;;61.75;47.00;;;;;12.90;40.12;102499.41;2442518;28;45353;-83
2022/03/26 02:45:48;;;;;;;;;56.25;43.25;;;;;12.88;40.37;102497.69;2442636;28;46311;-83
2022/03/26 02:46:59;;;;;;;;;54.50;38.75;;;;;12.89;39.90;102500.28;2442743;28;44589;-83
2022/03/26 02:48:12;;;;;;;;;58.75;45.75;;;;;12.87;40.37;102494.16;2445333;28;45204;-84
2022/03/26 02:49:23;;;;;;;;;57.50;44.75;;;;;12.88;40.13;102492.41;2449623;27;44788;-83
2022/03/26 02:50:33;;;;;;;;;55.50;43.50;;;;;12.85;40.77;102493.31;2451993;27;45283;-84
2022/03/26 02:51:43;;;;;;;;;60.00;44.50;;;;;12.86;40.70;102494.22;2445345;27;45651;-84
2022/03/26 02:52:54;;;;;;;;;56.50;44.50;;;;;12.83;40.88;102489.84;2442425;28;45422;-84
2022/03/26 02:54:05;;;;;;;;;58.25;45.25;;;;;12.86;40.97;102496.84;2442752;28;45322;-84
2022/03/26 02:55:15;;;;;;;;;59.00;44.50;;;;;12.80;40.83;102487.25;2450028;28;45340;-85
2022/03/26 02:56:25;;;;;;;;;62.00;47.00;;;;;12.79;40.82;102490.78;2447901;27;45288;-85
2022/03/26 02:57:36;;;;;;;;;60.25;48.00;;;;;12.80;40.94;102490.75;2443154;28;46337;-84
2022/03/26 02:58:49;;;;;;;;;61.25;45.25;;;;;12.77;41.18;102495.19;2451850;27;44690;-85
2022/03/26 03:00:00;;;;;;;;;59.75;41.75;;;;;12.73;41.24;102491.75;2451382;27;45407;-85
2022/03/26 03:01:12;;;;;;;;;62.75;46.75;;;;;12.67;41.49;102490.03;2451363;28;45446;-85
2022/03/26 03:02:22;;;;;;;;;56.25;43.75;;;;;12.66;41.38;102498.88;2451630;28;45339;-86
2022/03/26 03:03:33;;;;;;;;;60.25;44.75;;;;;12.62;41.22;102493.66;2452365;27;45334;-86
2022/03/26 03:04:43;;;;;;;;;57.25;41.25;;;;;12.58;41.14;102490.19;2448176;28;46949;-85
2022/03/26 03:05:53;;;;;;;;;52.50;37.50;;;;;12.54;41.77;102493.75;2444530;28;45276;-85
2022/03/26 03:07:04;;;;;;;;;57.25;46.50;;;;;12.52;41.90;102493.75;2451093;28;45436;-85
2022/03/26 03:08:15;;;;;;;;;65.00;48.50;;;;;12.47;41.74;102492.97;2449494;27;44757;-85
2022/03/26 03:09:26;;;;;;;;;60.50;45.50;;;;;12.45;41.83;102486.81;2442517;28;45361;-85
2022/03/26 03:10:36;;;;;;;;;60.50;47.50;;;;;12.43;41.38;102491.25;2450586;28;45552;-85
2022/03/26 03:11:47;;;;;;;;;52.75;42.00;;;;;12.38;41.49;102494.81;2447110;27;45266;-85
2022/03/26 03:12:59;;;;;;;;;55.50;45.75;;;;;12.37;41.82;102494.84;2444204;28;45168;-85
2022/03/26 03:14:10;;;;;;;;;59.75;44.25;;;;;12.32;42.19;102494.88;2452168;27;45416;-82
2022/03/26 03:15:20;;;;;;;;;64.00;47.25;;;;;12.31;41.71;102487.00;2443625;27;45460;-82
2022/03/26 03:16:32;;;;;;;;;62.00;46.75;;;;;12.29;42.04;102494.94;2447557;27;45470;-82
2022/03/26 03:17:42;;;;;;;;;62.75;47.25;;;;;12.30;42.30;102495.81;2442392;28;45372;-84
2022/03/26 03:18:53;;;;;;;;;61.00;46.25;;;;;12.25;42.18;102495.84;2441188;28;47853;-85
2022/03/26 03:20:04;;;;;;;;;60.25;44.25;;;;;12.21;42.32;102488.88;2444714;28;45484;-81
2022/03/26 03:21:14;;;;;;;;;60.75;45.25;;;;;12.18;42.61;102500.31;2442235;28;45557;-83
2022/03/26 03:22:25;;;;;;;;;64.75;49.50;;;;;12.16;41.67;102499.47;2442521;28;45428;-82
2022/03/26 03:23:35;;;;;;;;;63.75;49.25;;;;;12.15;42.49;102492.44;2442148;28;45331;-82
2022/03/26 03:24:46;;;;;;;;;61.25;49.25;;;;;12.13;41.95;102495.09;2442616;28;45478;-80
2022/03/26 03:25:56;;;;;;;;;65.00;49.50;;;;;12.13;42.12;102500.38;2442423;28;45165;-80
2022/03/26 03:27:06;;;;;;;;;61.00;48.50;;;;;12.11;42.02;102494.22;2442370;28;45169;-80
2022/03/26 03:28:17;;;;;;;;;60.25;46.75;;;;;12.10;42.27;102503.00;2442172;28;45416;-81
2022/03/26 03:29:27;;;;;;;;;61.25;46.25;;;;;12.08;41.88;102496.88;2442358;28;45204;-82
2022/03/26 03:30:37;;;;;;;;;71.25;50.50;;;;;12.06;42.16;102493.41;2450600;28;45379;-81
2022/03/26 03:31:48;;;;;;;;;66.00;49.25;;;;;12.05;41.73;102494.28;2447203;27;45211;-81
2022/03/26 03:32:58;;;;;;;;;67.25;50.00;;;;;12.05;42.19;102491.63;2442119;28;45218;-81
2022/03/26 03:34:09;;;;;;;;;67.75;49.25;;;;;12.06;42.41;102498.66;2442229;28;45161;-81
2022/03/26 03:35:21;;;;;;;;;60.00;47.75;;;;;12.07;42.38;102505.69;2441984;28;45229;-81
2022/03/26 03:36:31;;;;;;;;;55.50;45.50;;;;;12.04;42.62;102498.69;2442313;28;45223;-81
2022/03/26 03:37:41;;;;;;;;;68.00;50.25;;;;;12.07;42.54;102502.19;2442167;28;46358;-81
2022/03/26 03:38:52;;;;;;;;;62.75;49.50;;;;;12.03;42.59;102503.97;2442419;28;45286;-81
2022/03/26 03:40:03;;;;;;;;;57.50;44.75;;;;;12.04;43.17;102503.09;2444196;28;45443;-81
2022/03/26 03:41:13;;;;;;;;;66.25;50.00;;;;;12.03;43.06;102499.56;2442453;28;44677;-81
2022/03/26 03:42:23;;;;;;;;;60.25;46.75;;;;;12.01;42.88;102492.56;2442089;28;45283;-82
2022/03/26 03:43:34;;;;;;;;;63.00;47.50;;;;;12.01;42.79;102498.72;2447885;28;45477;-82
2022/03/26 03:44:44;;;;;;;;;61.25;47.50;;;;;12.00;42.89;102494.31;2450183;27;46789;-82
2022/03/26 03:45:54;;;;;;;;;63.50;48.50;;;;;11.98;43.08;102493.47;2442311;28;45393;-82
2022/03/26 03:47:05;;;;;;;;;61.75;46.25;;;;;11.98;43.12;102501.38;2449718;28;45480;-82
2022/03/26 03:48:16;;;;;;;;;57.50;45.50;;;;;11.97;42.63;102501.41;2451185;28;45346;-83
2022/03/26 03:49:26;;;;;;;;;64.00;47.75;;;;;11.92;42.98;102485.66;2451040;28;46177;-82
2022/03/26 03:50:37;;;;;;;;;61.50;47.25;;;;;11.90;43.18;102498.81;2450540;27;44709;-80
2022/03/26 03:51:47;;;;;;;;;61.75;47.00;;;;;11.90;43.05;102501.47;2447890;28;48092;-79
2022/03/26 03:52:58;;;;;;;;;61.50;47.75;;;;;11.86;43.06;102497.13;2441399;28;44617;-79
2022/03/26 03:54:08;;;;;;;;;61.00;45.50;;;;;11.85;43.26;102492.75;2442098;28;46421;-80
2022/03/26 03:55:19;;;;;;;;;61.75;47.00;;;;;11.83;43.44;102491.88;2441947;28;44672;-83
2022/03/26 03:56:30;;;;;;;;;57.00;43.25;;;;;11.82;43.10;102495.41;2441915;28;46407;-82
2022/03/26 03:57:45;;;;;;;;;59.50;45.50;;;;;11.79;43.47;102496.31;2442194;28;45153;-83
2022/03/26 03:58:56;;;;;;;;;61.75;45.75;;;;;11.77;43.63;102492.81;2442125;28;46178;-83
2022/03/26 04:00:07;;;;;;;;;58.75;46.25;;;;;11.75;43.19;102504.25;2443257;28;45170;-82
2022/03/26 04:01:18;;;;;;;;;60.50;46.00;;;;;11.70;43.14;102496.41;2441181;28;47233;-84
2022/03/26 04:02:29;;;;;;;;;60.75;43.75;;;;;11.69;42.99;102497.28;2453942;27;44605;-84
2022/03/26 04:03:39;;;;;;;;;60.00;47.00;;;;;11.66;43.71;102505.22;2454541;27;45795;-84
2022/03/26 04:04:50;;;;;;;;;56.75;43.50;;;;;11.66;43.66;102506.09;2441795;28;45246;-86
2022/03/26 04:06:00;;;;;;;;;61.25;45.50;;;;;11.64;43.78;102505.22;2441924;28;45557;-85
2022/03/26 04:07:10;;;;;;;;;57.00;44.00;;;;;11.61;43.65;102507.00;2444512;28;45461;-85
2022/03/26 04:08:21;;;;;;;;;59.25;45.00;;;;;11.62;43.87;102508.75;2451142;28;45579;-85
2022/03/26 04:09:31;;;;;;;;;56.75;45.50;;;;;11.59;44.11;102509.66;2441365;28;45243;-85
2022/03/26 04:10:41;;;;;;;;;56.00;41.50;;;;;11.58;43.39;102518.47;2445725;28;46423;-85
2022/03/26 04:11:52;;;;;;;;;54.75;42.50;;;;;11.56;43.66;102509.69;2446929;27;45338;-85
2022/03/26 04:13:02;;;;;;;;;59.50;43.50;;;;;11.57;43.65;102511.44;2443910;28;45542;-85
2022/03/26 04:14:13;;;;;;;;;56.00;43.75;;;;;11.58;44.10;102513.19;2451902;28;45439;-87
2022/03/26 04:15:24;;;;;;;;;55.75;41.75;;;;;11.55;43.25;102507.94;2444595;27;45465;-84
2022/03/26 04:16:34;;;;;;;;;55.75;43.50;;;;;11.56;43.29;102504.41;2450261;27;45325;-83
2022/03/26 04:17:44;;;;;;;;;51.50;42.00;;;;;11.55;43.83;102510.59;2442041;28;45253;-83
2022/03/26 04:18:55;;;;;;;;;58.50;43.50;;;;;11.52;43.73;102502.69;2441742;28;45484;-82
2022/03/26 04:20:08;;;;;;;;;55.00;43.00;;;;;11.53;43.46;102509.72;2442696;28;45394;-82
2022/03/26 04:21:18;;;;;;;;;53.25;43.00;;;;;11.53;43.60;102501.81;2442031;28;45289;-82
2022/03/26 04:22:28;;;;;;;;;55.75;42.50;;;;;11.51;43.78;102503.59;2442074;27;46412;-82
2022/03/26 04:23:39;;;;;;;;;52.50;43.00;;;;;11.51;43.75;102509.72;2441944;28;44675;-82
2022/03/26 04:24:49;;;;;;;;;52.50;38.50;;;;;11.51;43.81;102514.13;2441570;28;46300;-82
2022/03/26 04:26:00;;;;;;;;;56.00;43.75;;;;;11.48;44.20;102502.72;2442104;28;45205;-82
2022/03/26 04:27:10;;;;;;;;;52.75;40.50;;;;;11.48;43.68;102507.13;2441649;28;45367;-82
2022/03/26 04:28:20;;;;;;;;;52.00;40.50;;;;;11.49;43.93;102500.97;2442163;28;45275;-84
2022/03/26 04:29:31;;;;;;;;;53.25;41.75;;;;;11.50;43.48;102509.75;2441021;28;48060;-83
2022/03/26 04:30:41;;;;;;;;;55.00;41.75;;;;;11.47;43.79;102508.88;2448894;28;45385;-83
2022/03/26 04:31:52;;;;;;;;;57.50;43.25;;;;;11.49;43.76;102514.13;2447080;27;45493;-81
2022/03/26 04:33:02;;;;;;;;;55.00;42.75;;;;;11.48;44.23;102512.41;2441856;28;45326;-81
2022/03/26 04:34:13;;;;;;;;;55.75;42.75;;;;;11.47;44.08;102510.66;2441495;28;46470;-84
2022/03/26 04:35:24;;;;;;;;;56.00;44.25;;;;;11.44;44.23;102511.53;2441709;28;45448;-82
2022/03/26 04:36:34;;;;;;;;;49.00;36.00;;;;;11.46;44.24;102519.41;2441690;28;46363;-82
2022/03/26 04:37:44;;;;;;;;;52.75;42.50;;;;;11.42;44.31;102515.94;2449964;28;45234;-83
2022/03/26 04:38:56;;;;;;;;;58.00;43.25;;;;;11.42;44.26;102520.34;2445524;27;46218;-83
2022/03/26 04:40:11;;;;;;;;;52.50;42.50;;;;;11.39;44.26;102515.09;2442923;28;45153;-83
2022/03/26 04:41:22;;;;;;;;;58.50;42.25;;;;;11.36;44.44;102514.22;2451004;27;46328;-83
2022/03/26 04:42:32;;;;;;;;;54.00;43.00;;;;;11.38;44.02;102527.41;2450991;28;44886;-84
2022/03/26 04:43:42;;;;;;;;;52.50;40.75;;;;;11.34;43.92;102516.00;2445932;27;46364;-85
2022/03/26 04:44:53;;;;;;;;;52.25;42.25;;;;;11.35;44.36;102520.41;2442315;28;44769;-82
2022/03/26 04:46:03;;;;;;;;;54.75;41.75;;;;;11.33;43.75;102518.66;2443561;28;47130;-81
2022/03/26 04:47:13;;;;;;;;;56.50;43.75;;;;;11.32;44.29;102511.63;2451004;28;45280;-82
2022/03/26 04:48:24;;;;;;;;;56.25;43.75;;;;;11.33;44.47;102510.75;2451370;27;46399;-82
2022/03/26 04:49:34;;;;;;;;;51.25;40.50;;;;;11.31;44.34;102513.38;2451234;27;45412;-82
2022/03/26 04:50:44;;;;;;;;;50.25;38.75;;;;;11.32;44.37;102514.25;2447624;27;46221;-82
2022/03/26 04:51:55;;;;;;;;;50.25;39.75;;;;;11.31;44.58;102513.38;2442105;28;45193;-87
2022/03/26 04:53:05;;;;;;;;;52.75;42.25;;;;;11.30;44.89;102510.78;2441500;28;45353;-87
2022/03/26 04:54:16;;;;;;;;;54.75;42.00;;;;;11.30;45.06;102516.91;2441639;28;45252;-89
2022/03/26 04:55:26;;;;;;;;;52.25;40.50;;;;;11.30;44.69;102513.41;2447233;28;45900;-88
2022/03/26 04:56:36;;;;;;;;;53.75;41.25;;;;;11.29;44.71;102511.66;2443619;28;45258;-88
2022/03/26 04:57:48;;;;;;;;;57.00;44.00;;;;;11.26;45.05;102507.28;2450924;28;45345;-88
2022/03/26 04:58:58;;;;;;;;;55.75;43.25;;;;;11.25;44.64;102523.97;2450703;28;45250;-87
2022/03/26 05:00:12;;;;;;;;;53.75;42.00;;;;;11.21;44.97;102517.84;2449722;28;46083;-87
2022/03/26 05:01:23;;;;;;;;;52.50;40.50;;;;;11.22;45.31;102522.22;2445626;27;45420;-86
2022/03/26 05:02:33;;;;;;;;;54.75;43.50;;;;;11.20;45.00;102512.59;2445941;28;47350;-88
2022/03/26 05:03:43;;;;;;;;;53.75;40.00;;;;;11.19;45.14;102519.63;2440852;28;44689;-87
2022/03/26 05:04:54;;;;;;;;;56.00;43.75;;;;;11.18;45.06;102510.00;2441196;28;46413;-87
2022/03/26 05:06:04;;;;;;;;;52.75;41.25;;;;;11.15;45.25;102507.38;2440816;28;45352;-86
2022/03/26 05:08:43;;;;;;;;;55.25;41.50;;;;;11.12;44.63;102517.91;2441894;28;44787;-85
2022/03/26 05:09:53;;;;;;;;;54.50;42.75;;;;;11.11;44.79;102519.66;2448065;28;45317;-86
2022/03/26 05:11:05;;;;;;;;;55.25;41.50;;;;;11.10;44.42;102517.06;2448205;27;45391;-85
2022/03/26 05:12:17;;;;;;;;;56.00;43.00;;;;;11.08;44.25;102510.94;2441526;28;45318;-86
2022/03/26 05:13:27;;;;;;;;;53.50;41.00;;;;;11.07;44.61;102509.16;2447271;28;45424;-85
2022/03/26 05:14:37;;;;;;;;;59.50;43.75;;;;;11.06;44.35;102510.06;2445451;27;46262;-86
2022/03/26 05:15:48;;;;;;;;;57.50;43.75;;;;;11.07;44.59;102520.56;2441692;27;44618;-85
2022/03/26 05:16:58;;;;;;;;;53.75;42.75;;;;;11.06;44.52;102521.47;2441435;28;46075;-86
2022/03/26 05:18:08;;;;;;;;;55.75;43.50;;;;;11.08;44.70;102527.59;2440757;28;45197;-86
2022/03/26 05:19:19;;;;;;;;;52.25;41.00;;;;;11.08;45.08;102522.34;2446464;28;45246;-86
2022/03/26 05:20:30;;;;;;;;;56.50;42.75;;;;;11.09;45.12;102525.81;2450429;27;45164;-85
2022/03/26 05:21:40;;;;;;;;;54.50;42.00;;;;;11.10;45.05;102531.09;2450528;27;46085;-84
2022/03/26 05:22:52;;;;;;;;;56.50;42.50;;;;;11.06;44.68;102521.47;2449861;27;45243;-84